Time;durP1;ratioP1;P1;durP2;ratioP2;P2;SDS_P1;SDS_P2;PMS_P1;PMS_P2;Temp;Humidity;BMP_temperature;BMP_pressure;BME280_temperature;BME280_humidity;BME280_pressure;Samples;Min_cycle;Max_cycle;Signal;HPM_P1;HPM_P2
2021/05/11 00:01:56;;;;;;;6.00;5.50;;;;;;;15.90;85.51;95571.50;5075925;28;20171;-63
2021/05/11 00:04:21;;;;;;;6.27;5.73;;;;;;;15.39;87.96;95568.41;5077396;28;20182;-69
2021/05/11 00:06:47;;;;;;;7.30;6.60;;;;;;;15.06;90.77;95584.19;5068313;28;20187;-69
2021/05/11 00:09:12;;;;;;;8.47;6.20;;;;;;;15.34;89.55;95578.22;5073991;28;20249;-62
2021/05/11 00:11:37;;;;;;;7.10;6.50;;;;;;;15.48;87.78;95581.88;5076851;28;20194;-69
2021/05/11 00:14:06;;;;;;;7.50;6.80;;;;;;;15.42;88.37;95580.31;5077152;28;20174;-62
2021/05/11 00:16:32;;;;;;;7.33;6.73;;;;;;;15.75;86.45;95576.91;5076731;28;20210;-62
2021/05/11 00:18:59;;;;;;;7.00;6.40;;;;;;;16.02;85.24;95565.81;5076392;28;20774;-70
2021/05/11 00:21:24;;;;;;;7.00;6.40;;;;;;;16.12;83.82;95573.69;5069610;28;20457;-62
2021/05/11 00:23:50;;;;;;;7.60;6.90;;;;;;;15.96;84.60;95569.59;5057005;28;20450;-62
2021/05/11 00:26:15;;;;;;;7.10;6.40;;;;;;;16.07;84.28;95569.19;5056842;28;20175;-62
2021/05/11 00:28:40;;;;;;;7.50;6.80;;;;;;;16.04;83.70;95575.06;5056323;28;20179;-69
2021/05/11 00:31:06;;;;;;;8.90;8.10;;;;;;;15.98;84.08;95575.41;5056683;28;20274;-63
2021/05/11 00:33:31;;;;;;;10.60;9.53;;;;;;;15.99;84.28;95572.47;5056610;28;20175;-70
2021/05/11 00:35:56;;;;;;;10.37;9.37;;;;;;;15.93;84.33;95586.03;5061800;28;20183;-70
2021/05/11 00:38:22;;;;;;;10.13;9.17;;;;;;;15.72;85.09;95577.47;5058116;28;20169;-69
2021/05/11 00:40:47;;;;;;;10.27;9.17;;;;;;;15.73;85.50;95565.78;5076476;28;20179;-69
2021/05/11 00:43:13;;;;;;;9.87;8.87;;;;;;;15.82;85.36;95558.81;5076435;28;20250;-70
2021/05/11 00:45:38;;;;;;;9.87;8.87;;;;;;;15.77;85.79;95564.19;5057922;28;20179;-69
2021/05/11 00:48:04;;;;;;;9.47;8.57;;;;;;;15.83;85.11;95555.13;5056073;28;20171;-63
2021/05/11 00:50:29;;;;;;;9.47;8.27;;;;;;;15.86;85.34;95567.00;5061324;28;20309;-62
2021/05/11 00:52:55;;;;;;;8.70;7.80;;;;;;;16.02;84.37;95563.16;5076317;28;20841;-62
2021/05/11 00:55:21;;;;;;;8.57;7.67;;;;;;;16.06;83.79;95574.78;5057438;28;20179;-62
2021/05/11 00:57:47;;;;;;;8.63;7.83;;;;;;;15.88;84.65;95572.81;5055759;28;20172;-62
2021/05/11 01:00:13;;;;;;;9.93;8.10;;;;;;;15.81;84.69;95570.50;5056038;28;20923;-62
2021/05/11 01:02:38;;;;;;;8.67;7.87;;;;;;;15.75;84.50;95574.25;5056005;28;20415;-69
2021/05/11 01:05:05;;;;;;;9.20;8.30;;;;;;;15.52;86.76;95559.06;5056058;28;20802;-62
2021/05/11 01:07:30;;;;;;;8.03;7.23;;;;;;;15.64;85.97;95548.09;5073440;28;20174;-62
2021/05/11 01:09:57;;;;;;;7.80;7.00;;;;;;;15.81;85.32;95538.72;5076065;28;20485;-63
2021/05/11 01:12:23;;;;;;;7.50;6.80;;;;;;;16.00;83.99;95526.34;5075564;28;20193;-62
2021/05/11 01:14:48;;;;;;;7.87;7.07;;;;;;;15.93;84.46;95523.22;5076029;28;20421;-62
2021/05/11 01:17:29;;;;;;;7.90;7.10;;;;;;;15.92;84.49;95515.56;5074178;28;20724;-69
2021/05/11 01:19:58;;;;;;;9.10;7.60;;;;;;;15.87;85.11;95510.31;5074917;28;20657;-62
2021/05/11 01:25:32;;;;;;;8.43;7.60;;;;;;;16.23;83.18;95519.50;5075752;28;20413;-69
2021/05/11 01:43:53;;;;;;;10.33;8.40;;;;;;;15.94;83.81;95524.78;5076017;28;20456;-69
2021/05/11 01:49:12;;;;;;;8.60;7.70;;;;;;;15.82;84.64;95505.03;5073054;28;20582;-62
2021/05/11 02:24:43;;;;;;;12.17;9.97;;;;;;;14.97;88.91;95530.28;5073834;28;20396;-62
2021/05/11 02:27:08;;;;;;;12.80;9.40;;;;;;;14.98;89.33;95524.69;5074245;28;20405;-69
2021/05/11 02:29:33;;;;;;;15.43;11.60;;;;;;;15.05;88.93;95525.22;5074370;28;20190;-69
2021/05/11 02:31:59;;;;;;;13.50;10.77;;;;;;;15.15;88.47;95511.91;5067501;28;20182;-69
2021/05/11 02:34:24;;;;;;;13.80;11.10;;;;;;;15.06;88.61;95505.63;5072094;28;20179;-62
2021/05/11 02:36:49;;;;;;;13.37;10.90;;;;;;;15.01;89.33;95499.56;5060131;28;20540;-66
2021/05/11 02:39:15;;;;;;;12.90;10.97;;;;;;;15.08;88.78;95502.69;5074015;28;20202;-69
2021/05/11 02:41:43;;;;;;;12.50;10.53;;;;;;;14.65;91.01;95519.34;5059978;28;20254;-62
2021/05/11 02:44:08;;;;;;;16.07;10.87;;;;;;;14.56;92.27;95515.66;5062219;28;20815;-62
2021/05/11 02:46:34;;;;;;;14.00;10.83;;;;;;;14.36;92.84;95527.13;5065847;28;20500;-69
2021/05/11 02:49:01;;;;;;;14.00;11.07;;;;;;;14.08;94.94;95528.47;5055607;28;20266;-69
2021/05/11 02:51:26;;;;;;;12.70;10.20;;;;;;;13.93;95.84;95528.50;5057067;28;20199;-69
2021/05/11 02:53:52;;;;;;;13.70;10.50;;;;;;;14.05;95.53;95522.94;5071957;28;20428;-69
2021/05/11 02:56:17;;;;;;;13.90;10.07;;;;;;;14.01;95.88;95519.25;5073681;28;20644;-62
2021/05/11 02:58:43;;;;;;;13.30;9.80;;;;;;;14.03;96.31;95517.13;5073522;28;20170;-62
2021/05/11 03:01:09;;;;;;;14.87;11.40;;;;;;;14.26;94.52;95522.66;5073140;28;20162;-68
2021/05/11 03:03:34;;;;;;;14.47;10.93;;;;;;;14.39;93.48;95522.09;5069669;28;20443;-62
2021/05/11 03:05:59;;;;;;;13.13;10.10;;;;;;;14.60;92.56;95522.81;5064591;28;20181;-68
2021/05/11 03:08:25;;;;;;;13.10;9.90;;;;;;;14.38;93.83;95531.06;5064956;28;20218;-63
2021/05/11 03:10:50;;;;;;;13.90;10.23;;;;;;;14.53;92.83;95518.88;5073771;28;20190;-69
2021/05/11 03:13:16;;;;;;;12.53;9.33;;;;;;;14.19;94.32;95510.75;5073808;28;20167;-69
2021/05/11 03:15:41;;;;;;;13.57;10.57;;;;;;;14.23;93.88;95509.94;5072741;28;20224;-69
2021/05/11 03:18:06;;;;;;;14.20;10.97;;;;;;;14.06;95.34;95512.09;5073356;28;20162;-61
2021/05/11 03:20:32;;;;;;;13.47;10.50;;;;;;;14.01;95.20;95519.25;5072032;28;20202;-62
2021/05/11 03:22:57;;;;;;;13.10;9.63;;;;;;;14.06;95.23;95521.88;5070461;28;20175;-62
2021/05/11 03:25:23;;;;;;;14.23;10.43;;;;;;;14.01;95.91;95514.75;5070280;28;20213;-62
2021/05/11 03:27:49;;;;;;;14.43;9.27;;;;;;;14.05;95.60;95504.44;5053134;28;20580;-69
2021/05/11 03:30:14;;;;;;;12.60;9.83;;;;;;;13.79;97.12;95503.69;5053178;28;20421;-69
2021/05/11 03:32:40;;;;;;;14.57;10.40;;;;;;;14.03;96.26;95502.06;5069008;28;20244;-62
2021/05/11 03:35:05;;;;;;;11.90;9.73;;;;;;;14.08;95.25;95491.50;5067719;28;20668;-62
2021/05/11 03:37:31;;;;;;;12.60;10.23;;;;;;;14.32;94.91;95491.72;5059988;28;20202;-62
2021/05/11 03:39:57;;;;;;;15.10;10.47;;;;;;;14.61;92.99;95500.56;5073435;28;20260;-62
2021/05/11 03:42:30;;;;;;;13.47;9.40;;;;;;;14.61;93.23;95484.72;5073514;28;20163;-69
2021/05/11 03:44:59;;;;;;;12.73;9.73;;;;;;;14.73;92.90;95479.13;5073539;28;20175;-62
2021/05/11 03:47:26;;;;;;;10.03;8.73;;;;;;;14.78;92.64;95482.53;5072250;28;20421;-69
2021/05/11 03:49:52;;;;;;;12.43;9.60;;;;;;;14.70;91.82;95474.34;5062568;28;20448;-69
2021/05/11 03:52:17;;;;;;;12.10;9.60;;;;;;;14.77;92.03;95473.00;5065212;28;20448;-69
2021/05/11 03:54:42;;;;;;;12.10;10.23;;;;;;;14.77;92.26;95465.06;5073448;28;20191;-63
2021/05/11 03:57:08;;;;;;;13.37;10.93;;;;;;;14.90;90.86;95463.66;5073009;28;20167;-62
2021/05/11 03:59:37;;;;;;;12.60;9.60;;;;;;;14.98;90.76;95465.72;5073150;28;20206;-69
2021/05/11 04:02:03;;;;;;;14.10;10.43;;;;;;;14.91;91.32;95471.31;5071695;28;20579;-62
2021/05/11 04:04:28;;;;;;;15.73;11.77;;;;;;;15.02;90.64;95477.34;5060766;28;20424;-62
2021/05/11 04:06:54;;;;;;;14.73;11.63;;;;;;;15.13;90.07;95478.84;5063753;28;20471;-69
2021/05/11 04:09:33;;;;;;;15.73;12.70;;;;;;;15.23;89.67;95484.06;5085059;28;20198;-69
2021/05/11 04:12:44;;;;;;;18.63;12.70;;;;;;;15.18;89.68;95460.28;5093111;28;20182;-69
2021/05/11 04:17:33;;;;;;;17.63;11.57;;;;;;;15.23;89.79;95460.25;5053615;28;20548;-62
2021/05/11 04:19:59;;;;;;;18.57;12.57;;;;;;;15.38;89.46;95468.84;5062522;28;20471;-62
2021/05/11 04:22:24;;;;;;;17.20;11.93;;;;;;;15.49;88.59;95474.09;5069413;28;20213;-62
2021/05/11 04:24:50;;;;;;;18.60;12.97;;;;;;;15.53;88.46;95481.19;5057053;28;20178;-69
2021/05/11 04:27:15;;;;;;;15.67;12.80;;;;;;;15.42;88.32;95464.63;5068851;28;20186;-62
2021/05/11 04:29:41;;;;;;;16.57;12.03;;;;;;;15.00;90.78;95464.38;5061916;28;20182;-69
2021/05/11 04:32:06;;;;;;;17.80;13.50;;;;;;;15.17;90.76;95474.59;5072606;28;20605;-62
2021/05/11 04:34:32;;;;;;;17.90;12.70;;;;;;;15.35;89.76;95465.97;5069011;28;20167;-68
2021/05/11 04:36:57;;;;;;;15.60;12.80;;;;;;;15.40;89.35;95455.34;5052712;28;20171;-62
2021/05/11 04:39:22;;;;;;;19.57;13.53;;;;;;;15.53;88.64;95454.72;5052629;28;20192;-63
2021/05/11 04:41:48;;;;;;;18.17;13.80;;;;;;;15.76;87.60;95461.91;5053042;28;20175;-62
2021/05/11 04:44:15;;;;;;;19.00;14.37;;;;;;;15.71;87.49;95467.28;5052692;28;20176;-62
2021/05/11 04:46:48;;;;;;;20.47;14.50;;;;;;;15.71;86.47;95466.50;5053432;28;20167;-62
2021/05/11 04:49:14;;;;;;;19.17;13.07;;;;;;;15.72;87.04;95471.50;5058817;28;20544;-69
2021/05/11 04:51:40;;;;;;;22.33;15.00;;;;;;;15.72;87.26;95468.88;5075291;28;20535;-61
2021/05/11 04:54:05;;;;;;;18.60;14.20;;;;;;;15.75;86.90;95473.59;5072428;28;20209;-62
2021/05/11 04:56:31;;;;;;;19.87;14.27;;;;;;;15.88;86.36;95478.25;5076271;28;20404;-62
2021/05/11 04:58:56;;;;;;;19.03;13.33;;;;;;;15.86;86.46;95501.56;5075924;28;20193;-69
2021/05/11 05:01:22;;;;;;;17.17;12.80;;;;;;;15.80;86.30;95515.16;5076326;28;20607;-69
2021/05/11 05:03:51;;;;;;;19.47;14.30;;;;;;;15.76;86.38;95509.59;5074666;28;20162;-69
2021/05/11 05:06:16;;;;;;;19.37;13.87;;;;;;;15.81;86.83;95511.44;5056270;28;20181;-69
2021/05/11 05:08:42;;;;;;;18.13;13.47;;;;;;;15.84;86.86;95492.31;5061030;28;20512;-69
2021/05/11 05:11:07;;;;;;;19.60;14.30;;;;;;;15.88;86.35;95488.03;5076104;28;20189;-62
2021/05/11 05:13:32;;;;;;;18.30;14.00;;;;;;;15.86;86.11;95483.03;5076037;28;20617;-69
2021/05/11 05:15:59;;;;;;;20.80;15.20;;;;;;;15.67;87.33;95479.47;5076082;28;20216;-69
2021/05/11 05:18:28;;;;;;;17.17;14.10;;;;;;;15.75;86.73;95460.34;5074923;28;20159;-69
2021/05/11 05:20:55;;;;;;;20.80;15.20;;;;;;;15.77;86.84;95450.25;5056212;28;20504;-63
2021/05/11 05:23:22;;;;;;;19.47;14.63;;;;;;;15.70;86.92;95460.41;5055800;28;20406;-62
2021/05/11 05:25:54;;;;;;;19.13;14.33;;;;;;;15.76;86.98;95477.81;5055779;28;20398;-69
2021/05/11 05:28:19;;;;;;;20.87;15.03;;;;;;;15.63;87.54;95486.44;5055268;28;20444;-69
2021/05/11 05:30:44;;;;;;;17.80;13.47;;;;;;;15.56;87.41;95477.22;5055567;28;20503;-69
2021/05/11 05:33:10;;;;;;;17.50;14.17;;;;;;;15.61;88.12;95479.81;5055210;28;20249;-66
2021/05/11 05:35:35;;;;;;;18.50;12.80;;;;;;;15.34;90.00;95480.28;5069428;28;20215;-62
2021/05/11 05:38:01;;;;;;;18.70;14.63;;;;;;;15.48;89.09;95480.44;5066882;28;20630;-62
2021/05/11 05:40:26;;;;;;;17.03;13.30;;;;;;;15.56;88.69;95478.03;5055408;28;20288;-62
2021/05/11 05:42:52;;;;;;;15.83;13.37;;;;;;;15.63;87.74;95478.47;5055967;28;20163;-62
2021/05/11 05:45:18;;;;;;;15.30;12.57;;;;;;;15.75;87.54;95486.03;5055293;28;20644;-69
2021/05/11 05:47:50;;;;;;;15.43;13.20;;;;;;;15.73;87.75;95496.13;5054878;28;20429;-69
2021/05/11 05:50:25;;;;;;;19.77;13.83;;;;;;;15.64;87.10;95487.19;5073391;28;20281;-69
2021/05/11 05:52:59;;;;;;;18.17;13.50;;;;;;;15.55;87.77;95486.22;5073580;28;20456;-62
2021/05/11 05:55:24;;;;;;;15.53;12.37;;;;;;;15.61;87.76;95490.41;5073820;28;20425;-69
2021/05/11 05:57:49;;;;;;;18.37;13.73;;;;;;;15.77;86.70;95503.25;5074178;28;20409;-69
2021/05/11 06:00:17;;;;;;;18.60;14.17;;;;;;;15.50;88.04;95518.84;5074318;28;20213;-63
2021/05/11 06:02:45;;;;;;;17.13;13.50;;;;;;;15.46;87.66;95499.28;5063607;28;20174;-69
2021/05/11 06:05:12;;;;;;;15.40;13.63;;;;;;;15.43;87.88;95498.00;5055049;28;20410;-62
2021/05/11 06:07:38;;;;;;;15.60;11.73;;;;;;;15.46;88.21;95483.38;5062867;28;20570;-62
2021/05/11 06:10:11;;;;;;;14.90;12.20;;;;;;;15.39;88.79;95493.47;5074647;28;20516;-66
2021/05/11 06:12:57;;;;;;;16.90;13.70;;;;;;;15.29;89.29;95496.97;5074887;28;20460;-69
2021/05/11 06:18:07;;;;;;;17.20;13.37;;;;;;;15.44;88.17;95474.94;5056915;28;20575;-63
2021/05/11 06:20:32;;;;;;;14.73;11.90;;;;;;;15.51;87.72;95480.69;5054291;28;20417;-70
2021/05/11 06:22:57;;;;;;;15.50;12.40;;;;;;;15.49;88.13;95472.22;5067607;28;20196;-69
2021/05/11 06:25:23;;;;;;;19.03;13.53;;;;;;;15.02;91.17;95456.94;5074618;28;20171;-69
2021/05/11 06:27:55;;;;;;;16.70;13.37;;;;;;;15.07;90.89;95456.16;5074225;28;20190;-69
2021/05/11 06:30:21;;;;;;;16.77;12.53;;;;;;;15.24;90.12;95451.22;5066942;28;20183;-61
2021/05/11 06:32:46;;;;;;;16.27;12.60;;;;;;;15.48;89.48;95438.09;5054435;28;20471;-62
2021/05/11 06:35:12;;;;;;;15.43;12.30;;;;;;;15.54;88.85;95452.88;5054517;28;20207;-62
2021/05/11 06:37:37;;;;;;;17.20;12.73;;;;;;;15.55;88.76;95465.84;5060057;28;20175;-62
2021/05/11 06:40:04;;;;;;;16.20;13.03;;;;;;;15.32;88.51;95471.81;5060362;28;20200;-62
2021/05/11 06:42:30;;;;;;;16.40;12.90;;;;;;;15.49;88.72;95468.81;5074194;28;20250;-69
2021/05/11 06:53:09;;;;;;;12.60;11.30;;;;;;;15.41;89.31;95463.06;5074491;28;20911;-69
2021/05/11 06:55:37;;;;;;;12.90;11.43;;;;;;;15.60;88.51;95454.41;5061230;28;20432;-69
2021/05/11 06:58:03;;;;;;;11.77;10.50;;;;;;;15.81;87.84;95451.28;5056745;28;20772;-69
2021/05/11 07:00:29;;;;;;;13.40;10.60;;;;;;;16.06;86.53;95447.56;5072640;28;20852;-64
2021/05/11 07:02:55;;;;;;;10.87;9.73;;;;;;;16.20;85.96;95443.16;5073978;28;20405;-62
2021/05/11 07:05:20;;;;;;;12.47;10.73;;;;;;;16.27;84.86;95439.09;5073766;28;20625;-68
2021/05/11 07:07:54;;;;;;;12.07;10.87;;;;;;;16.18;85.73;95438.16;5059509;28;20605;-62
2021/05/11 07:10:25;;;;;;;10.97;9.83;;;;;;;16.14;86.88;95454.91;5062424;28;20240;-69
2021/05/11 07:13:08;;;;;;;11.83;10.63;;;;;;;16.44;84.41;95447.38;5068117;28;20514;-62
2021/05/11 07:15:34;;;;;;;11.93;10.73;;;;;;;16.29;84.40;95439.59;5054178;28;20406;-62
2021/05/11 07:18:27;;;;;;;10.30;9.30;;;;;;;16.54;83.85;95440.41;5053443;28;20432;-62
2021/05/11 07:20:58;;;;;;;11.77;10.57;;;;;;;16.55;83.73;95434.00;5053645;28;20263;-63
2021/05/11 07:23:24;;;;;;;11.83;10.60;;;;;;;16.53;83.96;95434.31;5053471;28;20502;-62
2021/05/11 07:31:00;;;;;;;14.17;10.93;;;;;;;16.85;82.49;95410.50;5073637;28;20491;-65
2021/05/11 07:33:29;;;;;;;11.80;10.27;;;;;;;16.84;82.35;95416.09;5073710;28;20875;-62
2021/05/11 07:35:55;;;;;;;13.10;11.37;;;;;;;16.93;82.15;95414.38;5064265;28;20794;-65
2021/05/11 07:38:23;;;;;;;13.03;10.53;;;;;;;16.97;81.74;95392.28;5053017;28;20414;-65
2021/05/11 07:40:48;;;;;;;12.03;9.70;;;;;;;17.02;81.27;95391.41;5052043;28;20199;-62
2021/05/11 07:43:14;;;;;;;10.87;9.63;;;;;;;17.12;81.11;95391.25;5053316;28;20420;-66
2021/05/11 07:45:59;;;;;;;11.77;10.67;;;;;;;16.94;80.43;95392.06;5053088;28;20175;-60
2021/05/11 08:04:41;;;;;;;11.17;10.00;;;;;;;16.42;82.74;95427.53;5053290;28;20397;-62
2021/05/11 08:17:46;;;;;;;9.47;8.63;;;;;;;17.12;80.42;95433.72;5072825;28;20424;-72
2021/05/11 08:23:17;;;;;;;10.07;9.17;;;;;;;17.25;80.07;95415.19;5070028;28;20432;-64
2021/05/11 08:28:24;;;;;;;8.83;7.93;;;;;;;17.29;79.32;95423.34;5072089;28;20778;-70
2021/05/11 08:30:50;;;;;;;8.80;7.90;;;;;;;17.31;79.04;95413.22;5072233;28;20425;-63
2021/05/11 08:33:15;;;;;;;9.07;8.30;;;;;;;17.05;79.63;95417.34;5072711;28;20637;-62
2021/05/11 08:35:40;;;;;;;8.03;7.30;;;;;;;17.28;79.67;95400.56;5073189;28;20179;-65
2021/05/11 08:38:06;;;;;;;7.57;6.87;;;;;;;17.47;79.25;95374.75;5071030;28;20195;-65
2021/05/11 08:40:33;;;;;;;7.33;6.03;;;;;;;17.53;79.17;95357.63;5073129;28;20183;-67
2021/05/11 08:43:02;;;;;;;6.83;6.13;;;;;;;17.72;77.70;95353.00;5071242;28;20175;-66
2021/05/11 08:45:31;;;;;;;6.57;5.87;;;;;;;17.83;76.93;95369.53;5065746;28;20908;-64
2021/05/11 08:47:56;;;;;;;5.80;5.30;;;;;;;17.90;76.46;95369.97;5052559;28;21001;-67
2021/05/11 08:50:34;;;;;;;6.40;5.80;;;;;;;18.13;75.32;95379.59;5052715;28;20520;-65
2021/05/11 08:59:58;;;;;;;6.80;6.20;;;;;;;18.22;73.68;95412.41;5054929;28;20917;-66
2021/05/11 09:24:07;;;;;;;6.80;6.23;;;;;;;18.34;75.09;95404.69;5054839;28;20433;-62
2021/05/11 10:39:10;;;;;;;7.97;7.10;;;;;;;19.33;72.12;95403.53;5070576;28;20445;-61
2021/05/11 10:47:01;;;;;;;12.80;9.43;;;;;;;19.20;68.91;95406.25;5074142;28;20451;-64
2021/05/11 10:49:38;;;;;;;10.40;9.33;;;;;;;19.47;68.49;95406.16;5073998;28;20428;-65
2021/05/11 10:52:13;;;;;;;11.07;9.43;;;;;;;19.44;67.62;95404.88;5058286;28;20682;-64
2021/05/11 10:54:55;;;;;;;10.17;9.13;;;;;;;19.63;68.47;95407.34;5054128;28;20420;-65
2021/05/11 11:00:22;;;;;;;10.23;9.23;;;;;;;19.85;67.80;95411.84;5066537;28;20981;-61
2021/05/11 11:03:12;;;;;;;14.73;10.83;;;;;;;19.46;67.21;95417.88;5074095;28;20432;-61
2021/05/11 11:05:41;;;;;;;12.10;10.90;;;;;;;18.98;69.49;95417.69;5074425;28;20396;-61
2021/05/11 11:08:28;;;;;;;11.93;10.73;;;;;;;18.79;70.62;95430.34;5073430;28;20473;-61
2021/05/11 11:11:19;;;;;;;11.60;10.50;;;;;;;19.19;69.50;95425.97;5073665;28;20447;-66
2021/05/11 11:13:48;;;;;;;11.53;10.43;;;;;;;18.73;70.96;95422.78;5071130;28;20591;-66
2021/05/11 11:16:15;;;;;;;9.33;8.40;;;;;;;18.56;72.45;95419.97;5053826;28;20749;-61
2021/05/11 11:18:41;;;;;;;8.63;7.83;;;;;;;18.23;72.76;95417.41;5053160;28;20504;-64
2021/05/11 11:23:49;;;;;;;8.07;7.37;;;;;;;19.13;69.26;95413.88;5053812;28;20757;-61
2021/05/11 11:26:28;;;;;;;7.77;7.17;;;;;;;19.24;69.20;95405.34;5053695;28;20767;-61
2021/05/11 11:29:05;;;;;;;7.97;7.27;;;;;;;19.60;69.17;95407.97;5058662;28;20796;-65
2021/05/11 11:31:33;;;;;;;7.17;6.23;;;;;;;19.82;68.49;95402.56;5070666;28;20453;-62
2021/05/11 11:34:24;;;;;;;6.07;5.67;;;;;;;20.32;69.40;95403.88;5053383;28;20406;-61
2021/05/11 11:37:16;;;;;;;7.00;6.40;;;;;;;20.58;66.22;95400.47;5053424;28;20398;-66
2021/05/11 11:39:42;;;;;;;7.07;6.50;;;;;;;20.39;66.51;95419.44;5053777;28;20448;-63
2021/05/11 11:42:20;;;;;;;6.50;6.10;;;;;;;20.89;62.90;95425.94;5053558;28;20406;-64
2021/05/11 11:44:47;;;;;;;5.83;5.43;;;;;;;20.41;63.29;95443.94;5060760;28;20172;-62
2021/05/11 11:47:13;;;;;;;5.50;5.20;;;;;;;20.48;62.60;95457.63;5071778;28;20444;-65
2021/05/11 11:49:44;;;;;;;6.10;5.70;;;;;;;20.63;63.86;95451.06;5073104;28;20460;-62
2021/05/11 11:52:16;;;;;;;5.20;4.90;;;;;;;20.83;66.03;95447.78;5073327;28;20191;-62
2021/05/11 11:55:00;;;;;;;5.30;4.90;;;;;;;20.85;63.09;95434.91;5053310;28;20422;-61
2021/05/11 12:00:11;;;;;;;5.47;5.07;;;;;;;21.43;58.88;95432.59;5057539;28;20421;-65
2021/05/11 12:02:37;;;;;;;4.70;4.30;;;;;;;21.70;60.07;95440.25;5057290;28;20402;-61
2021/05/11 12:05:13;;;;;;;4.50;4.20;;;;;;;22.03;60.21;95430.56;5060737;28;20167;-61
2021/05/11 12:08:24;;;;;;;4.43;4.13;;;;;;;21.86;62.14;95425.28;5056750;28;20767;-61
2021/05/11 12:10:26;;;;;;;3.90;3.60;;;;;;;22.14;60.74;95423.00;5056727;28;20461;-62
2021/05/11 12:12:52;;;;;;;4.10;3.80;;;;;;;22.16;58.27;95421.53;5057189;28;20959;-61
2021/05/11 12:15:20;;;;;;;4.33;3.20;;;;;;;22.16;58.91;95415.41;5055823;28;20508;-64
2021/05/11 12:18:19;;;;;;;2.83;2.73;;;;;;;22.17;58.99;95411.63;5056806;28;20405;-64
2021/05/11 12:20:46;;;;;;;3.00;2.80;;;;;;;22.14;59.99;95417.63;5056936;28;20444;-65
2021/05/11 12:23:14;;;;;;;2.57;2.47;;;;;;;21.79;61.25;95422.31;5057131;28;20401;-65
2021/05/11 12:25:52;;;;;;;2.90;2.73;;;;;;;21.54;60.95;95427.69;5057003;28;20497;-61
2021/05/11 12:28:38;;;;;;;2.33;2.23;;;;;;;21.61;61.45;95434.13;5056460;28;20907;-61
2021/05/11 12:31:05;;;;;;;2.50;2.20;;;;;;;21.55;60.82;95443.41;5056792;28;20880;-65
2021/05/11 12:33:51;;;;;;;2.33;2.13;;;;;;;21.57;61.21;95448.44;5059971;28;20433;-65
2021/05/11 12:36:17;;;;;;;2.73;2.53;;;;;;;21.05;62.45;95453.81;5076408;28;20504;-64
2021/05/11 12:38:43;;;;;;;3.03;2.27;;;;;;;21.22;63.27;95461.03;5074898;28;20444;-61
2021/05/11 12:41:25;;;;;;;3.00;2.70;;;;;;;21.23;63.31;95454.63;5075378;28;20818;-65
2021/05/11 12:43:52;;;;;;;2.70;2.50;;;;;;;21.13;63.63;95458.38;5057537;28;20721;-69
2021/05/11 12:46:29;;;;;;;2.93;2.70;;;;;;;20.98;63.81;95466.06;5056553;28;20416;-63
2021/05/11 12:48:58;;;;;;;2.43;2.23;;;;;;;20.77;64.20;95465.84;5064588;28;20433;-60
2021/05/11 12:51:40;;;;;;;2.97;2.40;;;;;;;20.92;64.32;95464.63;5076219;28;20539;-64
2021/05/11 12:54:27;;;;;;;3.93;2.40;;;;;;;20.90;63.66;95451.56;5075159;28;20424;-64
2021/05/11 13:02:20;;;;;;;2.73;2.50;;;;;;;20.73;64.50;95448.88;5076411;28;20401;-64
2021/05/11 13:25:43;;;;;;;4.07;3.87;;;;;;;17.64;76.46;95496.41;5060486;28;20436;-66
2021/05/11 13:28:13;;;;;;;4.53;4.27;;;;;;;17.48;77.24;95501.19;5055276;28;20409;-71
2021/05/11 13:35:30;;;;;;;6.10;5.70;;;;;;;17.80;76.86;95508.34;5055750;28;20237;-70
2021/05/11 13:37:56;;;;;;;6.13;5.63;;;;;;;17.68;78.11;95519.47;5066236;28;20179;-70
2021/05/11 13:40:21;;;;;;;6.60;6.00;;;;;;;17.73;78.49;95522.03;5068327;28;20194;-65
2021/05/11 13:42:46;;;;;;;6.37;5.97;;;;;;;17.73;77.60;95529.19;5071945;28;20578;-69
2021/05/11 13:45:12;;;;;;;7.80;7.30;;;;;;;17.76;77.78;95525.94;5072071;28;20199;-66
2021/05/11 13:47:40;;;;;;;8.33;7.53;;;;;;;17.38;79.24;95523.34;5071617;28;20185;-69
2021/05/11 13:50:07;;;;;;;7.87;7.37;;;;;;;17.23;80.08;95522.75;5071240;28;20731;-71
2021/05/11 13:52:33;;;;;;;8.50;7.93;;;;;;;16.84;81.46;95535.50;5071461;28;20487;-68
2021/05/11 13:55:04;;;;;;;8.10;7.40;;;;;;;17.15;81.61;95526.06;5071708;28;20495;-66
2021/05/11 14:03:05;;;;;;;5.90;5.60;;;;;;;16.92;82.03;95529.59;5075098;28;20397;-64
2021/05/11 14:05:30;;;;;;;5.73;5.33;;;;;;;17.14;82.50;95522.63;5070061;28;20778;-65
2021/05/11 14:07:56;;;;;;;5.50;5.00;;;;;;;17.13;81.67;95522.91;5072031;28;20186;-68
2021/05/11 14:10:22;;;;;;;5.33;4.93;;;;;;;17.22;81.09;95527.28;5055131;28;20213;-66
2021/05/11 14:12:48;;;;;;;5.30;4.90;;;;;;;17.39;80.48;95518.81;5054722;28;20272;-66
2021/05/11 14:15:14;;;;;;;5.60;5.10;;;;;;;17.17;80.52;95519.41;5054901;28;20426;-66
2021/05/11 14:17:40;;;;;;;5.37;4.90;;;;;;;17.16;81.92;95520.47;5054398;28;20539;-66
2021/05/11 14:20:06;;;;;;;4.73;4.33;;;;;;;17.43;80.88;95528.56;5060875;28;20195;-68
2021/05/11 14:22:31;;;;;;;5.13;4.73;;;;;;;16.97;83.01;95532.97;5054897;28;20241;-66
2021/05/11 14:24:57;;;;;;;4.73;4.37;;;;;;;17.16;83.32;95527.63;5054637;28;20418;-66
2021/05/11 14:27:22;;;;;;;4.43;4.10;;;;;;;17.17;82.99;95524.72;5054366;28;20186;-67
2021/05/11 14:29:47;;;;;;;5.10;4.70;;;;;;;17.22;82.82;95523.84;5054644;28;20199;-67
2021/05/11 14:32:13;;;;;;;4.90;4.50;;;;;;;17.15;82.52;95523.41;5054636;28;20202;-65
2021/05/11 14:34:39;;;;;;;5.13;4.70;;;;;;;16.70;85.39;95521.38;5054495;28;20691;-67
2021/05/11 14:37:04;;;;;;;6.90;6.40;;;;;;;16.52;86.14;95520.25;5068311;28;20179;-66
2021/05/11 14:39:30;;;;;;;4.43;4.10;;;;;;;16.74;85.01;95519.72;5054238;28;20244;-67
2021/05/11 14:41:56;;;;;;;4.40;4.00;;;;;;;16.63;85.86;95515.63;5054512;28;20182;-66
2021/05/11 14:44:22;;;;;;;4.43;4.10;;;;;;;16.55;87.13;95510.94;5055541;28;20537;-57
2021/05/11 14:46:48;;;;;;;5.53;5.03;;;;;;;16.68;87.10;95510.25;5074293;28;20413;-68
2021/05/11 14:49:14;;;;;;;5.77;5.23;;;;;;;16.74;86.75;95520.50;5056829;28;20438;-63
2021/05/11 14:51:39;;;;;;;6.50;5.80;;;;;;;16.71;87.12;95515.78;5053635;28;20461;-65
2021/05/11 14:54:05;;;;;;;6.17;5.57;;;;;;;16.23;86.96;95517.63;5064209;28;20645;-65
2021/05/11 14:56:31;;;;;;;5.47;4.93;;;;;;;16.38;87.91;95521.97;5070539;28;20206;-66
2021/05/11 14:58:56;;;;;;;5.87;5.37;;;;;;;16.29;87.66;95519.16;5069864;28;20182;-63
2021/05/11 15:01:21;;;;;;;9.80;6.20;;;;;;;16.16;88.78;95527.75;5069759;28;20697;-62
2021/05/11 15:03:47;;;;;;;9.03;8.13;;;;;;;15.85;90.67;95531.00;5062267;28;20199;-61
2021/05/11 15:06:12;;;;;;;8.20;7.40;;;;;;;16.24;89.93;95519.22;5050226;28;20590;-61
2021/05/11 15:08:38;;;;;;;9.73;8.77;;;;;;;15.79;90.49;95534.75;5050059;28;20180;-70
2021/05/11 15:11:03;;;;;;;11.13;10.10;;;;;;;16.08;89.72;95546.16;5050357;28;20179;-64
2021/05/11 15:13:29;;;;;;;6.07;5.50;;;;;;;15.76;91.33;95543.25;5050293;28;20183;-60
2021/05/11 15:15:56;;;;;;;7.60;6.80;;;;;;;15.60;92.06;95553.19;5053490;28;20175;-61
2021/05/11 15:18:22;;;;;;;7.10;6.47;;;;;;;15.49;93.20;95549.00;5065358;28;20186;-66
2021/05/11 15:20:47;;;;;;;6.40;5.80;;;;;;;15.44;92.70;95549.06;5050012;28;20438;-61
2021/05/11 15:23:13;;;;;;;9.13;7.50;;;;;;;15.41;92.74;95544.31;5050366;28;20711;-66
2021/05/11 15:25:39;;;;;;;5.47;3.83;;;;;;;14.91;93.34;95555.19;5050367;28;20175;-67
2021/05/11 15:28:04;;;;;;;3.50;3.20;;;;;;;14.77;96.13;95562.09;5050252;28;20174;-67
2021/05/11 15:30:31;;;;;;;9.00;7.70;;;;;;;14.70;96.54;95561.63;5049689;28;20529;-61
2021/05/11 15:32:58;;;;;;;3.93;3.60;;;;;;;14.68;96.62;95571.66;5055735;28;20664;-61
2021/05/11 15:35:26;;;;;;;6.27;4.50;;;;;;;14.57;97.09;95559.53;5050797;28;20978;-59
2021/05/11 15:37:59;;;;;;;5.83;4.97;;;;;;;14.78;97.17;95563.72;5069567;28;20409;-67
2021/05/11 15:40:27;;;;;;;4.47;3.87;;;;;;;14.59;97.50;95563.50;5069456;28;20517;-64
2021/05/11 15:42:52;;;;;;;4.80;3.30;;;;;;;14.92;96.89;95565.50;5055737;28;20450;-68
2021/05/11 15:45:18;;;;;;;1.80;1.70;;;;;;;14.82;97.11;95562.13;5049836;28;20467;-69
2021/05/11 15:47:53;;;;;;;1.80;1.70;;;;;;;14.75;97.80;95572.16;5049497;28;20172;-61
2021/05/11 15:50:21;;;;;;;0.93;0.90;;;;;;;15.08;96.29;95574.94;5051204;28;20205;-65